Oosterschelde — PGNP — position and weather

sailwx.info

Track history (hours):
 
Tides and Currents Weather Stations Pressure Air Temp Water Temp Dewpoint Dewpoint Depression Visibility Wind Speed Wind Dir Waves Ship Positions

Oosterschelde (Netherlands)

Ship's website: http://www.oosterschelde.nl/indexuk.htm

Last reported at 2018-Apr-05 21:58 UTC. Time now 2018-Apr-20 06:35 UTC.
Position N 29°19' W 094°48'.
Warning: this ship's position is 14 days out of date.

Length 49 m; draft 2.9 m.

Type: Sailing vessel. MMSI: 246010985.

Date/timePositionNaut miles runAvg speedWind from/ knotsBaromVisibWave heightAir tempDewpointWater temp
2018-Apr-05 21:58N 29°19' W 094°48'1 1.2
2018-Apr-05 21:29N 29°19' W 094°47'3 6.6
2018-Apr-05 21:00N 29°21' W 094°44'2 4.4
2018-Apr-05 20:29N 29°19' W 094°42'3 5.3
2018-Apr-05 20:00N 29°18' W 094°45'2 2.5
2018-Apr-05 19:21N 29°18' W 094°46'1 1.2
2018-Apr-05 18:16N 29°18' W 094°45'2 7.1
2018-Apr-05 18:00N 29°19' W 094°43'0 0.8
2018-Apr-05 17:30N 29°19' W 094°43'1 1.7
2018-Apr-05 17:00N 29°18' W 094°42'2 4.7
2018-Apr-05 16:29N 29°20' W 094°41'3 5.1
2018-Apr-05 15:57N 29°21' W 094°44'1 2.7
2018-Apr-05 15:30N 29°21' W 094°45'0 0.0
2018-Apr-05 14:57N 29°21' W 094°45'0 0.0
2018-Apr-05 14:27N 29°21' W 094°45'0 0.0
2018-Apr-05 14:00N 29°21' W 094°45'0 0.0
2018-Apr-05 13:27N 29°21' W 094°45'0 0.0
2018-Apr-05 12:57N 29°21' W 094°45'0 0.0
2018-Apr-05 12:30N 29°21' W 094°45'0 0.0
2018-Apr-05 12:00N 29°21' W 094°45'0 0.0
2018-Apr-05 11:27N 29°21' W 094°45'0 0.0
2018-Apr-05 11:00N 29°21' W 094°45'0 0.0
2018-Apr-05 10:27N 29°21' W 094°45'0 0.0
2018-Apr-05 10:00N 29°21' W 094°45'0 0.0
2018-Apr-05 09:27N 29°21' W 094°45'0 0.0
2018-Apr-05 09:00N 29°21' W 094°45'0 0.0
2018-Apr-05 08:30N 29°21' W 094°45'0 0.0
2018-Apr-05 07:45N 29°21' W 094°45'0 0.0
2018-Apr-05 07:27N 29°21' W 094°45'0 0.0
2018-Apr-05 06:57N 29°21' W 094°45'0 0.0
2018-Apr-05 06:27N 29°21' W 094°45'0 0.0
2018-Apr-05 06:00N 29°21' W 094°45'0 0.0
2018-Apr-05 05:30N 29°21' W 094°45'0 0.0
2018-Apr-05 04:57N 29°21' W 094°45'0 0.0
2018-Apr-05 03:57N 29°21' W 094°45'0 0.0
2018-Apr-05 03:24N 29°21' W 094°45'0 0.1
2018-Apr-05 02:54N 29°21' W 094°45'0 0.0
2018-Apr-05 02:18N 29°21' W 094°45'0 0.1
2018-Apr-05 01:48N 29°21' W 094°45'0 0.0
2018-Apr-05 01:21N 29°21' W 094°45'0 0.0
2018-Apr-05 00:54N 29°21' W 094°45'0 0.0
2018-Apr-05 00:24N 29°21' W 094°45'0 0.0
2018-Apr-04 23:48N 29°21' W 094°45'0 0.0
2018-Apr-04 23:21N 29°21' W 094°45'0 0.0
2018-Apr-04 22:54N 29°21' W 094°45'0 0.0
2018-Apr-04 22:24N 29°21' W 094°45'0 0.0
2018-Apr-04 22:00N 29°21' W 094°45'0 0.0
2018-Apr-04 21:30N 29°21' W 094°45'0 0.0
2018-Apr-04 21:00N 29°21' W 094°45'0 0.0
2018-Apr-04 20:30N 29°21' W 094°45'0 0.0
2018-Apr-04 20:00N 29°21' W 094°45'0 0.0
2018-Apr-04 19:24N 29°21' W 094°45'0 0.1
2018-Apr-04 18:57N 29°21' W 094°45'0 0.0
2018-Apr-04 18:29N 29°21' W 094°45'4 6.9
2018-Apr-04 17:57N 29°20' W 094°41'4 8.0
2018-Apr-04 17:28N 29°19' W 094°37'3 7.1
2018-Apr-04 16:59N 29°17' W 094°34'2 4.8
2018-Apr-04 16:30N 29°15' W 094°32'3 5.1
2018-Apr-04 16:00N 29°14' W 094°29'3 6.2
2018-Apr-04 15:29N 29°12' W 094°26'3 6.5
2018-Apr-04 15:00N 29°11' W 094°23'3 6.4
2018-Apr-04 14:28N 29°09' W 094°20'10 6.0
2018-Apr-04 12:48N 29°03' W 094°11'2 5.7
2018-Apr-04 12:30N 29°01' W 094°09'3 6.0
2018-Apr-04 12:00N 28°59' W 094°07'2 4.6
2018-Apr-04 11:29N 28°58' W 094°05'  
Track history (hours):
 
Tides and Currents Weather Stations Pressure Air Temp Water Temp Dewpoint Dewpoint Depression Visibility Wind Speed Wind Dir Waves Ship Positions

Oosterschelde (Netherlands)

Ship's website: http://www.oosterschelde.nl/indexuk.htm

Last reported at 2018-Apr-05 21:58 UTC. Time now 2018-Apr-20 06:35 UTC.
Position N 29°19' W 094°48'.
Warning: this ship's position is 14 days out of date.

Length 49 m; draft 2.9 m.

Type: Sailing vessel. MMSI: 246010985.

Date/timePositionNaut miles runAvg speedWind from/ knotsBaromVisibWave heightAir tempDewpointWater temp
2018-Apr-05 21:58N 29°19' W 094°48'1 1.2
2018-Apr-05 21:29N 29°19' W 094°47'3 6.6
2018-Apr-05 21:00N 29°21' W 094°44'2 4.4
2018-Apr-05 20:29N 29°19' W 094°42'3 5.3
2018-Apr-05 20:00N 29°18' W 094°45'2 2.5
2018-Apr-05 19:21N 29°18' W 094°46'1 1.2
2018-Apr-05 18:16N 29°18' W 094°45'2 7.1
2018-Apr-05 18:00N 29°19' W 094°43'0 0.8
2018-Apr-05 17:30N 29°19' W 094°43'1 1.7
2018-Apr-05 17:00N 29°18' W 094°42'2 4.7
2018-Apr-05 16:29N 29°20' W 094°41'3 5.1
2018-Apr-05 15:57N 29°21' W 094°44'1 2.7
2018-Apr-05 15:30N 29°21' W 094°45'0 0.0
2018-Apr-05 14:57N 29°21' W 094°45'0 0.0
2018-Apr-05 14:27N 29°21' W 094°45'0 0.0
2018-Apr-05 14:00N 29°21' W 094°45'0 0.0
2018-Apr-05 13:27N 29°21' W 094°45'0 0.0
2018-Apr-05 12:57N 29°21' W 094°45'0 0.0
2018-Apr-05 12:30N 29°21' W 094°45'0 0.0
2018-Apr-05 12:00N 29°21' W 094°45'0 0.0
2018-Apr-05 11:27N 29°21' W 094°45'0 0.0
2018-Apr-05 11:00N 29°21' W 094°45'0 0.0
2018-Apr-05 10:27N 29°21' W 094°45'0 0.0
2018-Apr-05 10:00N 29°21' W 094°45'0 0.0
2018-Apr-05 09:27N 29°21' W 094°45'0 0.0
2018-Apr-05 09:00N 29°21' W 094°45'0 0.0
2018-Apr-05 08:30N 29°21' W 094°45'0 0.0
2018-Apr-05 07:45N 29°21' W 094°45'0 0.0
2018-Apr-05 07:27N 29°21' W 094°45'0 0.0
2018-Apr-05 06:57N 29°21' W 094°45'0 0.0
2018-Apr-05 06:27N 29°21' W 094°45'0 0.0
2018-Apr-05 06:00N 29°21' W 094°45'0 0.0
2018-Apr-05 05:30N 29°21' W 094°45'0 0.0
2018-Apr-05 04:57N 29°21' W 094°45'0 0.0
2018-Apr-05 03:57N 29°21' W 094°45'0 0.0
2018-Apr-05 03:24N 29°21' W 094°45'0 0.1
2018-Apr-05 02:54N 29°21' W 094°45'0 0.0
2018-Apr-05 02:18N 29°21' W 094°45'0 0.1
2018-Apr-05 01:48N 29°21' W 094°45'0 0.0
2018-Apr-05 01:21N 29°21' W 094°45'0 0.0
2018-Apr-05 00:54N 29°21' W 094°45'0 0.0
2018-Apr-05 00:24N 29°21' W 094°45'0 0.0
2018-Apr-04 23:48N 29°21' W 094°45'0 0.0
2018-Apr-04 23:21N 29°21' W 094°45'0 0.0
2018-Apr-04 22:54N 29°21' W 094°45'0 0.0
2018-Apr-04 22:24N 29°21' W 094°45'0 0.0
2018-Apr-04 22:00N 29°21' W 094°45'0 0.0
2018-Apr-04 21:30N 29°21' W 094°45'0 0.0
2018-Apr-04 21:00N 29°21' W 094°45'0 0.0
2018-Apr-04 20:30N 29°21' W 094°45'0 0.0
2018-Apr-04 20:00N 29°21' W 094°45'0 0.0
2018-Apr-04 19:24N 29°21' W 094°45'0 0.1
2018-Apr-04 18:57N 29°21' W 094°45'0 0.0
2018-Apr-04 18:29N 29°21' W 094°45'4 6.9
2018-Apr-04 17:57N 29°20' W 094°41'4 8.0
2018-Apr-04 17:28N 29°19' W 094°37'3 7.1
2018-Apr-04 16:59N 29°17' W 094°34'2 4.8
2018-Apr-04 16:30N 29°15' W 094°32'3 5.1
2018-Apr-04 16:00N 29°14' W 094°29'3 6.2
2018-Apr-04 15:29N 29°12' W 094°26'3 6.5
2018-Apr-04 15:00N 29°11' W 094°23'3 6.4
2018-Apr-04 14:28N 29°09' W 094°20'10 6.0
2018-Apr-04 12:48N 29°03' W 094°11'2 5.7
2018-Apr-04 12:30N 29°01' W 094°09'3 6.0
2018-Apr-04 12:00N 28°59' W 094°07'2 4.6
2018-Apr-04 11:29N 28°58' W 094°05'  

Dump ship's entire track history